createdAt,value
2019-03-19T00:00:31.590Z,4.43
2019-03-19T00:03:01.042Z,4.54
2019-03-19T00:05:30.490Z,4.45
2019-03-19T00:07:59.960Z,4.35
2019-03-19T00:10:29.416Z,4.30
2019-03-19T00:12:58.870Z,4.30
2019-03-19T00:15:28.350Z,3.77
2019-03-19T00:17:57.805Z,3.87
2019-03-19T00:20:27.267Z,3.97
2019-03-19T00:22:56.746Z,4.11
2019-03-19T00:25:30.441Z,4.08
2019-03-19T00:27:57.391Z,4.17
2019-03-19T00:30:26.855Z,4.11
2019-03-19T00:32:56.314Z,4.08
2019-03-19T00:35:25.769Z,3.98
2019-03-19T00:37:55.246Z,4.02
2019-03-19T00:40:24.704Z,3.95
2019-03-19T00:42:54.164Z,4.06
2019-03-19T00:45:23.642Z,4.02
2019-03-19T00:47:53.096Z,4.06
2019-03-19T00:50:22.576Z,3.99
2019-03-19T00:52:52.042Z,3.95
2019-03-19T00:55:21.501Z,4.02
2019-03-19T00:57:50.953Z,4.07
2019-03-19T01:00:21.366Z,3.53
2019-03-19T01:02:51.816Z,3.30
2019-03-19T01:05:21.301Z,3.65
2019-03-19T01:07:50.745Z,3.73
2019-03-19T01:10:20.268Z,4.07
2019-03-19T01:12:49.745Z,4.13
2019-03-19T01:15:19.200Z,4.08
2019-03-19T01:17:48.654Z,4.02
2019-03-19T01:20:18.399Z,4.07
2019-03-19T01:22:47.853Z,4.11
2019-03-19T01:25:17.308Z,4.08
2019-03-19T01:27:46.853Z,3.86
2019-03-19T01:30:17.252Z,3.76
2019-03-19T01:32:46.711Z,3.92
2019-03-19T01:35:16.185Z,3.91
2019-03-19T01:37:45.648Z,3.84
2019-03-19T01:40:15.243Z,3.66
2019-03-19T01:42:44.721Z,3.67
2019-03-19T01:45:14.726Z,3.56
2019-03-19T01:47:44.186Z,3.46
2019-03-19T01:50:16.926Z,2.99
2019-03-19T01:52:46.372Z,2.59
2019-03-19T01:55:16.403Z,2.63
2019-03-19T01:57:45.932Z,2.45
2019-03-19T02:00:18.166Z,2.84
2019-03-19T02:02:47.640Z,3.06
2019-03-19T02:05:17.125Z,3.26
2019-03-19T02:07:46.588Z,3.24
2019-03-19T02:10:16.221Z,3.27
2019-03-19T02:12:45.693Z,3.27
2019-03-19T02:15:17.446Z,3.36
2019-03-19T02:17:47.233Z,3.27
2019-03-19T02:20:20.288Z,3.05
2019-03-19T02:22:49.769Z,2.99
2019-03-19T02:25:19.244Z,3.00
2019-03-19T02:27:48.714Z,3.10
2019-03-19T02:30:18.607Z,2.90
2019-03-19T02:32:48.093Z,3.09
2019-03-19T02:35:17.547Z,3.03
2019-03-19T02:37:47.032Z,2.97
2019-03-19T02:40:17.448Z,2.87
2019-03-19T02:42:46.897Z,2.59
2019-03-19T02:45:16.699Z,2.59
2019-03-19T02:47:46.180Z,2.66
2019-03-19T02:50:17.182Z,2.96
2019-03-19T02:52:46.692Z,3.04
2019-03-19T02:55:16.264Z,3.08
2019-03-19T02:57:45.765Z,2.96
2019-03-19T03:00:17.037Z,3.00
2019-03-19T03:02:46.983Z,3.03
2019-03-19T03:05:22.150Z,2.77
2019-03-19T03:07:51.647Z,2.72
2019-03-19T03:10:21.204Z,2.73
2019-03-19T03:12:51.001Z,2.81
2019-03-19T03:15:20.521Z,2.71
2019-03-19T03:17:50.014Z,2.82
2019-03-19T03:20:20.287Z,2.73
2019-03-19T03:22:49.866Z,2.69
2019-03-19T03:25:19.516Z,2.49
2019-03-19T03:27:49.271Z,2.08
2019-03-19T03:30:22.363Z,2.09
2019-03-19T03:32:51.944Z,2.29
2019-03-19T03:35:21.428Z,2.56
2019-03-19T03:37:50.940Z,2.47
2019-03-19T03:40:21.355Z,2.38
2019-03-19T03:42:50.814Z,2.60
2019-03-19T03:45:20.851Z,2.72
2019-03-19T03:47:50.329Z,2.62
2019-03-19T03:50:20.439Z,2.21
2019-03-19T03:52:49.909Z,2.41
2019-03-19T03:55:20.573Z,2.70
2019-03-19T03:57:50.028Z,2.76
2019-03-19T04:00:22.097Z,2.73
2019-03-19T04:02:51.606Z,2.81
2019-03-19T04:05:21.061Z,2.80
2019-03-19T04:07:50.539Z,2.62
2019-03-19T04:10:20.438Z,2.39
2019-03-19T04:12:49.920Z,2.59
2019-03-19T04:15:19.754Z,2.56
2019-03-19T04:17:49.289Z,2.38
2019-03-19T04:20:19.193Z,2.38
2019-03-19T04:22:48.687Z,2.19
2019-03-19T04:25:18.128Z,2.14
2019-03-19T04:27:47.606Z,1.43
2019-03-19T04:30:20.891Z,1.61
2019-03-19T04:32:50.345Z,1.98
2019-03-19T04:35:19.817Z,2.16
2019-03-19T04:37:49.280Z,2.27
2019-03-19T04:40:18.760Z,2.37
2019-03-19T04:42:48.225Z,2.37
2019-03-19T04:45:18.244Z,2.29
2019-03-19T04:47:47.703Z,2.18
2019-03-19T04:50:17.802Z,2.11
2019-03-19T04:52:47.274Z,2.01
2019-03-19T04:55:17.491Z,2.15
2019-03-19T04:57:46.972Z,2.22
2019-03-19T05:00:18.821Z,2.14
2019-03-19T05:02:48.357Z,2.04
2019-03-19T05:05:17.813Z,2.12
2019-03-19T05:07:47.280Z,1.93
2019-03-19T05:10:18.941Z,2.05
2019-03-19T05:12:48.464Z,2.12
2019-03-19T05:15:18.052Z,2.09
2019-03-19T05:17:47.533Z,2.18
2019-03-19T05:20:18.102Z,2.27
2019-03-19T05:22:47.560Z,2.26
2019-03-19T05:25:17.041Z,2.29
2019-03-19T05:27:46.500Z,2.14
2019-03-19T05:30:17.787Z,2.03
2019-03-19T05:32:47.394Z,2.09
2019-03-19T05:35:16.846Z,1.90
2019-03-19T05:37:46.401Z,1.91
2019-03-19T05:40:17.267Z,1.78
2019-03-19T05:42:46.820Z,1.94
2019-03-19T05:45:17.123Z,1.97
2019-03-19T05:47:46.581Z,2.09
2019-03-19T05:50:21.448Z,2.07
2019-03-19T05:52:50.917Z,2.22
2019-03-19T05:55:20.440Z,2.24
2019-03-19T05:57:50.657Z,2.44
2019-03-19T06:00:22.132Z,2.51
2019-03-19T06:02:51.591Z,2.56
2019-03-19T06:05:21.539Z,2.41
2019-03-19T06:07:51.149Z,2.58
2019-03-19T06:10:20.635Z,2.23
2019-03-19T06:12:50.121Z,2.60
2019-03-19T06:15:19.580Z,2.77
2019-03-19T06:17:49.061Z,2.86
2019-03-19T06:20:21.710Z,2.81
2019-03-19T06:22:51.193Z,3.00
2019-03-19T06:25:20.718Z,3.12
2019-03-19T06:27:59.808Z,3.21
2019-03-19T06:30:25.382Z,3.22
2019-03-19T06:32:54.860Z,3.27
2019-03-19T06:35:24.346Z,3.37
2019-03-19T06:37:53.873Z,3.52
2019-03-19T06:40:23.801Z,3.59
2019-03-19T06:42:53.284Z,3.52
2019-03-19T06:45:23.456Z,3.75
2019-03-19T06:47:52.994Z,3.29
2019-03-19T06:50:23.013Z,3.96
2019-03-19T06:52:52.469Z,4.08
2019-03-19T06:55:22.194Z,4.32
2019-03-19T06:57:51.732Z,4.46
2019-03-19T07:00:24.603Z,4.50
2019-03-19T07:02:54.149Z,4.42
2019-03-19T07:05:23.918Z,4.57
2019-03-19T07:07:53.360Z,4.66
2019-03-19T07:10:23.106Z,4.80
2019-03-19T07:12:52.556Z,4.98
2019-03-19T07:15:23.354Z,5.00
2019-03-19T07:17:52.799Z,5.22
2019-03-19T07:20:27.332Z,5.33
2019-03-19T07:22:56.807Z,5.50
2019-03-19T07:25:26.330Z,5.57
2019-03-19T07:27:55.781Z,5.62
2019-03-19T07:30:27.539Z,5.75
2019-03-19T07:32:57.002Z,5.70
2019-03-19T07:35:26.478Z,5.31
2019-03-19T07:37:55.959Z,5.37
2019-03-19T07:40:25.420Z,5.64
2019-03-19T07:42:54.869Z,6.09
2019-03-19T07:45:27.368Z,6.31
2019-03-19T07:47:56.783Z,6.62
2019-03-19T07:50:26.233Z,6.83
2019-03-19T07:52:55.769Z,7.02
2019-03-19T07:55:25.221Z,7.17
2019-03-19T07:57:54.676Z,7.32
2019-03-19T08:00:24.716Z,7.34
2019-03-19T08:02:54.173Z,7.37
2019-03-19T08:05:32.572Z,7.36
2019-03-19T08:07:54.826Z,7.63
2019-03-19T08:10:24.293Z,7.88
2019-03-19T08:12:53.747Z,8.16
2019-03-19T08:15:23.431Z,8.40
2019-03-19T08:17:52.905Z,8.77
2019-03-19T08:20:22.365Z,8.89
2019-03-19T08:22:51.823Z,9.00
2019-03-19T08:25:21.292Z,9.24
2019-03-19T08:27:50.750Z,9.39
2019-03-19T08:30:26.830Z,9.53
2019-03-19T08:32:56.293Z,9.61
2019-03-19T08:35:25.764Z,9.71
2019-03-19T08:37:55.216Z,9.87
2019-03-19T08:40:24.670Z,10.06
2019-03-19T08:42:54.154Z,10.35
2019-03-19T08:45:26.383Z,10.59
2019-03-19T08:47:55.830Z,10.64
2019-03-19T08:50:25.615Z,10.64
2019-03-19T08:52:55.585Z,10.71
2019-03-19T08:55:25.295Z,10.67
2019-03-19T08:57:55.003Z,10.63
2019-03-19T09:00:26.566Z,10.62
2019-03-19T09:02:56.046Z,10.95
2019-03-19T09:05:25.521Z,11.24
2019-03-19T09:07:55.008Z,11.53
2019-03-19T09:10:24.483Z,11.68
2019-03-19T09:12:53.961Z,12.18
2019-03-19T09:15:28.716Z,12.15
2019-03-19T09:17:58.185Z,11.88
2019-03-19T09:20:27.647Z,11.89
2019-03-19T09:22:57.138Z,11.75
2019-03-19T09:25:26.610Z,11.07
2019-03-19T09:27:56.078Z,10.53
2019-03-19T09:30:26.004Z,9.34
2019-03-19T09:32:55.463Z,8.95
2019-03-19T09:35:26.342Z,9.74
2019-03-19T09:37:58.846Z,9.13
2019-03-19T09:40:27.158Z,9.34
2019-03-19T09:42:56.631Z,9.71
2019-03-19T09:45:26.111Z,9.79
2019-03-19T09:47:55.600Z,10.90
2019-03-19T09:50:28.170Z,11.78
2019-03-19T09:52:57.640Z,12.03
2019-03-19T09:55:27.144Z,12.61
2019-03-19T09:57:56.615Z,11.62
2019-03-19T10:00:26.112Z,10.80
2019-03-19T10:02:55.587Z,10.99
2019-03-19T10:05:25.061Z,10.85
2019-03-19T10:07:55.690Z,10.89
2019-03-19T10:10:25.673Z,10.74
2019-03-19T10:12:55.154Z,11.20
2019-03-19T10:15:24.637Z,10.81
2019-03-19T10:17:54.108Z,10.34
2019-03-19T10:20:25.879Z,11.17
2019-03-19T10:22:55.366Z,11.64
2019-03-19T10:25:24.870Z,12.18
2019-03-19T10:27:54.328Z,12.54
2019-03-19T10:30:24.928Z,11.93
2019-03-19T10:32:54.417Z,12.01
2019-03-19T10:35:23.961Z,12.33
2019-03-19T10:37:53.429Z,12.65
2019-03-19T10:40:23.467Z,12.54
2019-03-19T10:42:52.929Z,13.06
2019-03-19T10:45:24.681Z,11.52
2019-03-19T10:47:54.171Z,11.71
2019-03-19T10:50:27.895Z,11.80
2019-03-19T10:52:57.458Z,12.36
2019-03-19T10:55:26.990Z,12.82
2019-03-19T10:57:56.489Z,13.25
2019-03-19T11:00:26.995Z,12.60
2019-03-19T11:02:56.699Z,12.97
2019-03-19T11:05:26.630Z,13.28
2019-03-19T11:07:56.176Z,13.89
2019-03-19T11:10:25.717Z,14.22
2019-03-19T11:12:55.189Z,14.33
2019-03-19T11:15:26.600Z,14.50
2019-03-19T11:17:56.135Z,12.80
2019-03-19T11:20:25.605Z,11.81
2019-03-19T11:22:55.102Z,12.84
2019-03-19T11:25:29.675Z,13.29
2019-03-19T11:27:59.157Z,13.49
2019-03-19T11:30:30.904Z,13.85
2019-03-19T11:33:00.384Z,14.38
2019-03-19T11:35:29.939Z,14.92
2019-03-19T11:37:59.421Z,13.93
2019-03-19T11:40:28.883Z,14.45
2019-03-19T11:42:58.378Z,14.89
2019-03-19T11:45:27.934Z,14.61
2019-03-19T11:47:57.512Z,14.02
2019-03-19T11:50:29.557Z,14.15
2019-03-19T11:52:59.098Z,13.51
2019-03-19T11:55:28.604Z,13.91
2019-03-19T11:57:58.143Z,12.72
2019-03-19T12:00:30.566Z,11.91
2019-03-19T12:03:10.904Z,12.13
2019-03-19T12:05:31.327Z,12.52
2019-03-19T12:08:00.961Z,13.02
2019-03-19T12:10:30.573Z,13.28
2019-03-19T12:13:00.053Z,13.31
2019-03-19T12:15:29.717Z,13.06
2019-03-19T12:17:59.185Z,12.61
2019-03-19T12:20:28.728Z,12.42
2019-03-19T12:22:58.292Z,12.49
2019-03-19T12:25:27.767Z,12.27
2019-03-19T12:27:57.324Z,11.71
2019-03-19T12:30:26.804Z,12.06
2019-03-19T12:32:56.323Z,11.50
2019-03-19T12:35:25.855Z,11.67
2019-03-19T12:37:55.319Z,11.54
2019-03-19T12:40:35.871Z,11.47
2019-03-19T12:42:56.978Z,11.83
2019-03-19T12:45:26.689Z,13.10
2019-03-19T12:47:56.282Z,14.20
2019-03-19T12:50:26.785Z,15.16
2019-03-19T12:52:56.274Z,14.92
2019-03-19T12:55:25.771Z,15.66
2019-03-19T12:57:55.261Z,13.54
2019-03-19T13:00:33.993Z,14.50
2019-03-19T13:02:58.716Z,15.67
2019-03-19T13:05:28.230Z,14.93
2019-03-19T13:07:57.700Z,15.55
2019-03-19T13:10:27.170Z,14.54
2019-03-19T13:12:56.751Z,15.28
2019-03-19T13:15:26.221Z,15.76
2019-03-19T13:17:55.715Z,16.41
2019-03-19T13:20:25.198Z,17.46
2019-03-19T13:22:54.939Z,16.01
2019-03-19T13:25:25.550Z,17.11
2019-03-19T13:27:55.026Z,17.46
2019-03-19T13:30:32.345Z,16.99
2019-03-19T13:33:01.906Z,17.86
2019-03-19T13:35:31.455Z,18.62
2019-03-19T13:38:01.007Z,19.26
2019-03-19T13:40:30.479Z,20.35
2019-03-19T13:42:59.956Z,20.89
2019-03-19T13:45:29.460Z,21.51
2019-03-19T13:47:58.934Z,21.70
2019-03-19T13:50:28.417Z,22.25
2019-03-19T13:52:57.925Z,22.70
2019-03-19T13:55:27.402Z,22.34
2019-03-19T13:57:56.890Z,22.34
2019-03-19T14:00:26.391Z,22.25
2019-03-19T14:02:56.217Z,22.29
2019-03-19T14:05:25.836Z,21.59
2019-03-19T14:07:55.329Z,22.20
2019-03-19T14:10:24.952Z,22.70
2019-03-19T14:12:54.394Z,20.99
2019-03-19T14:15:28.288Z,19.96
2019-03-19T14:17:57.782Z,21.34
2019-03-19T14:20:27.262Z,22.33
2019-03-19T14:22:56.753Z,22.73
2019-03-19T14:25:26.227Z,22.82
2019-03-19T14:27:55.721Z,19.97
2019-03-19T14:30:26.255Z,18.02
2019-03-19T14:32:55.726Z,20.92
2019-03-19T14:35:25.306Z,19.17
2019-03-19T14:37:54.881Z,21.17
2019-03-19T14:40:25.890Z,22.73
2019-03-19T14:42:58.041Z,23.66
2019-03-19T14:45:26.740Z,22.79
2019-03-19T14:47:56.219Z,20.23
2019-03-19T14:50:28.831Z,17.78
2019-03-19T14:52:58.334Z,16.38
2019-03-19T14:55:27.811Z,17.80
2019-03-19T14:57:57.290Z,18.43
2019-03-19T15:00:26.852Z,19.56
2019-03-19T15:02:56.399Z,19.06
2019-03-19T15:05:25.870Z,19.42
2019-03-19T15:07:55.370Z,17.59
2019-03-19T15:10:25.312Z,19.19
2019-03-19T15:12:54.923Z,19.43
2019-03-19T15:15:24.757Z,19.17
2019-03-19T15:17:54.222Z,18.61
2019-03-19T15:20:29.944Z,16.67
2019-03-19T15:22:59.421Z,15.56
2019-03-19T15:25:28.907Z,14.55
2019-03-19T15:27:58.401Z,13.74
2019-03-19T15:30:27.967Z,13.46
2019-03-19T15:32:57.439Z,13.86
2019-03-19T15:35:26.934Z,14.08
2019-03-19T15:37:56.434Z,13.75
2019-03-19T15:40:25.930Z,14.48
2019-03-19T15:42:55.399Z,15.48
2019-03-19T15:45:30.186Z,15.29
2019-03-19T15:47:59.670Z,15.48
2019-03-19T15:50:29.148Z,15.31
2019-03-19T15:52:58.725Z,15.06
2019-03-19T15:55:28.271Z,14.34
2019-03-19T15:57:57.853Z,13.84
2019-03-19T16:00:27.343Z,14.07
2019-03-19T16:02:56.826Z,13.63
2019-03-19T16:05:26.320Z,13.42
2019-03-19T16:07:55.782Z,13.03
2019-03-19T16:10:25.274Z,13.59
2019-03-19T16:12:54.755Z,13.88
2019-03-19T16:15:24.329Z,14.13
2019-03-19T16:17:53.801Z,14.23
2019-03-19T16:20:23.809Z,13.80
2019-03-19T16:22:53.301Z,13.59
2019-03-19T16:25:22.782Z,13.74
2019-03-19T16:27:52.250Z,13.60
2019-03-19T16:30:22.089Z,13.05
2019-03-19T16:32:51.650Z,12.80
2019-03-19T16:35:21.136Z,12.73
2019-03-19T16:37:50.638Z,12.54
2019-03-19T16:40:23.914Z,13.08
2019-03-19T16:42:53.356Z,13.97
2019-03-19T16:45:22.865Z,14.54
2019-03-19T16:47:52.342Z,14.26
2019-03-19T16:50:23.123Z,14.54
2019-03-19T16:52:52.687Z,14.14
2019-03-19T16:55:22.904Z,13.59
2019-03-19T16:57:52.466Z,13.68
2019-03-19T17:00:29.677Z,13.62
2019-03-19T17:02:59.415Z,13.14
2019-03-19T17:05:28.911Z,13.01
2019-03-19T17:07:58.384Z,13.33
2019-03-19T17:10:30.655Z,13.37
2019-03-19T17:13:00.187Z,13.10
2019-03-19T17:15:29.671Z,13.07
2019-03-19T17:17:59.301Z,12.81
2019-03-19T17:20:28.777Z,12.72
2019-03-19T17:22:58.276Z,12.73
2019-03-19T17:25:28.285Z,12.63
2019-03-19T17:27:57.764Z,12.40
2019-03-19T17:30:31.939Z,11.95
2019-03-19T17:33:01.498Z,11.65
2019-03-19T17:35:30.972Z,11.97
2019-03-19T17:38:00.477Z,12.04
2019-03-19T17:40:40.551Z,11.84
2019-03-19T17:43:01.137Z,11.85
2019-03-19T17:45:30.624Z,11.66
2019-03-19T17:48:00.138Z,11.26
2019-03-19T17:50:36.514Z,10.97
2019-03-19T17:53:06.640Z,11.09
2019-03-19T17:55:36.121Z,11.04
2019-03-19T17:58:06.053Z,10.74
2019-03-19T18:00:39.967Z,10.94
2019-03-19T18:03:09.451Z,11.01
2019-03-19T18:05:39.308Z,11.12
2019-03-19T18:08:08.811Z,11.08
2019-03-19T18:10:38.293Z,10.89
2019-03-19T18:13:07.874Z,10.83
2019-03-19T18:15:37.370Z,10.85
2019-03-19T18:18:06.935Z,10.93
2019-03-19T18:20:37.384Z,10.82
2019-03-19T18:23:06.937Z,10.44
2019-03-19T18:25:36.422Z,10.25
2019-03-19T18:28:05.905Z,10.24
2019-03-19T18:30:35.378Z,10.28
2019-03-19T18:33:04.913Z,10.23
2019-03-19T18:35:34.415Z,10.22
2019-03-19T18:38:03.885Z,10.04
2019-03-19T18:40:33.371Z,10.02
2019-03-19T18:43:02.865Z,10.03
2019-03-19T18:45:32.351Z,9.99
2019-03-19T18:48:01.844Z,9.91
2019-03-19T18:50:31.584Z,9.84
2019-03-19T18:53:01.057Z,9.81
2019-03-19T18:55:30.544Z,9.81
2019-03-19T18:58:00.009Z,9.79
2019-03-19T19:00:29.509Z,9.54
2019-03-19T19:02:58.980Z,9.30
2019-03-19T19:05:28.460Z,9.31
2019-03-19T19:07:58.023Z,8.93
2019-03-19T19:10:27.497Z,8.69
2019-03-19T19:12:56.974Z,8.52
2019-03-19T19:15:26.828Z,8.38
2019-03-19T19:17:56.315Z,8.17
2019-03-19T19:20:25.886Z,7.95
2019-03-19T19:22:55.405Z,7.86
2019-03-19T19:25:28.061Z,7.13
2019-03-19T19:27:57.619Z,7.63
2019-03-19T19:30:29.396Z,7.73
2019-03-19T19:33:02.206Z,7.68
2019-03-19T19:35:30.081Z,7.77
2019-03-19T19:37:59.547Z,7.89
2019-03-19T19:40:29.013Z,8.18
2019-03-19T19:42:58.503Z,8.22
2019-03-19T19:45:28.039Z,8.35
2019-03-19T19:47:57.520Z,8.17
2019-03-19T19:50:27.022Z,8.28
2019-03-19T19:52:56.499Z,8.31
2019-03-19T19:55:25.985Z,8.14
2019-03-19T19:57:55.548Z,7.83
2019-03-19T20:00:25.188Z,7.82
2019-03-19T20:02:54.675Z,7.73
2019-03-19T20:05:24.156Z,7.77
2019-03-19T20:07:53.622Z,7.79
2019-03-19T20:10:24.722Z,7.77
2019-03-19T20:12:54.182Z,7.74
2019-03-19T20:15:23.660Z,7.70
2019-03-19T20:17:53.158Z,7.50
2019-03-19T20:20:25.703Z,7.43
2019-03-19T20:22:55.176Z,7.29
2019-03-19T20:25:24.701Z,7.10
2019-03-19T20:27:54.182Z,7.07
2019-03-19T20:30:26.337Z,7.09
2019-03-19T20:32:55.894Z,7.03
2019-03-19T20:35:25.427Z,6.94
2019-03-19T20:37:55.170Z,6.82
2019-03-19T20:40:24.646Z,6.74
2019-03-19T20:42:54.112Z,6.61
2019-03-19T20:45:25.395Z,6.61
2019-03-19T20:47:54.886Z,6.63
2019-03-19T20:50:30.218Z,6.35
2019-03-19T20:52:59.779Z,6.41
2019-03-19T20:55:29.254Z,6.17
2019-03-19T20:57:58.894Z,6.08
2019-03-19T21:00:28.364Z,5.96
2019-03-19T21:02:57.828Z,5.87
2019-03-19T21:05:27.297Z,5.85
2019-03-19T21:07:56.854Z,5.91
2019-03-19T21:10:26.764Z,5.70
2019-03-19T21:12:56.310Z,5.68
2019-03-19T21:15:28.443Z,5.63
2019-03-19T21:17:57.992Z,5.64
2019-03-19T21:20:27.637Z,5.73
2019-03-19T21:22:57.261Z,5.73
2019-03-19T21:25:26.756Z,5.90
2019-03-19T21:27:56.215Z,6.03
2019-03-19T21:30:26.032Z,5.89
2019-03-19T21:32:55.497Z,5.84
2019-03-19T21:35:28.519Z,5.75
2019-03-19T21:37:58.018Z,5.86
2019-03-19T21:40:27.485Z,5.90
2019-03-19T21:42:56.960Z,5.87
2019-03-19T21:45:26.463Z,5.88
2019-03-19T21:47:55.932Z,5.77
2019-03-19T21:50:26.437Z,5.84
2019-03-19T21:52:55.933Z,5.77
2019-03-19T21:55:25.398Z,5.77
2019-03-19T21:57:54.878Z,5.78
2019-03-19T22:00:28.948Z,5.78
2019-03-19T22:02:58.430Z,5.70
2019-03-19T22:05:27.891Z,5.67
2019-03-19T22:07:57.375Z,5.33
2019-03-19T22:10:27.279Z,5.30
2019-03-19T22:12:56.799Z,5.31
2019-03-19T22:15:26.744Z,5.35
2019-03-19T22:17:56.210Z,5.38
2019-03-19T22:20:25.674Z,5.16
2019-03-19T22:22:55.180Z,5.02
2019-03-19T22:25:24.669Z,5.11
2019-03-19T22:27:54.213Z,5.22
2019-03-19T22:30:23.838Z,5.23
2019-03-19T22:32:53.357Z,5.20
2019-03-19T22:35:23.085Z,5.21
2019-03-19T22:37:52.642Z,5.23
2019-03-19T22:40:22.160Z,5.07
2019-03-19T22:42:51.681Z,5.06
2019-03-19T22:45:21.338Z,4.84
2019-03-19T22:47:51.975Z,4.77
2019-03-19T22:50:21.517Z,4.28
2019-03-19T22:52:51.060Z,4.50
2019-03-19T22:55:28.965Z,4.45
2019-03-19T22:57:51.798Z,4.54
2019-03-19T23:00:35.919Z,4.62
2019-03-19T23:03:07.175Z,4.75
2019-03-19T23:05:36.895Z,4.80
2019-03-19T23:08:06.613Z,4.72
2019-03-19T23:10:36.630Z,4.82
2019-03-19T23:13:06.457Z,4.64
2019-03-19T23:15:36.016Z,4.57
2019-03-19T23:18:05.689Z,4.64
2019-03-19T23:20:35.213Z,4.66
2019-03-19T23:23:04.926Z,4.71
2019-03-19T23:25:34.517Z,4.70
2019-03-19T23:28:04.199Z,4.64
2019-03-19T23:30:33.675Z,4.57
2019-03-19T23:33:03.162Z,4.50
2019-03-19T23:35:32.631Z,4.58
2019-03-19T23:38:02.128Z,4.58
2019-03-19T23:40:31.606Z,4.67
2019-03-19T23:43:01.073Z,4.61
2019-03-19T23:45:30.572Z,4.34
2019-03-19T23:48:00.039Z,4.45
2019-03-19T23:50:29.523Z,4.47
2019-03-19T23:52:58.995Z,4.42
2019-03-19T23:55:28.469Z,4.30
2019-03-19T23:57:57.956Z,4.18
